Latest Observation

25 Stations

15 Minute Data | America/Los_Angeles
as of 9/1/26 9:38 AM PDT
Station Date Time Temp (°F) RH (%) Dew Pt (°F) Wind Spd (mph) Wind Dir (°) Wind Gust (mph) Latest Rain (In) Daily Rain (In) Daily Min Temp (°F) Daily Max Temp (°F)
Rockpile Upper (Cooley) 9/1/26 0930 54.9   4.1 89   23 51.6   4.2 3.6   2.0 WNW | 284 10.1   3.5 0.00 0.00 51.3   2.7 56.9   4.7
Rockpile Lower (Cooley) 9/1/26 0915 58.2   1.1 80   3 52.1   2.1 6.0   4.2 W | 267 13.0   9.3 0.00 0.00 55.0   5.9 59.8   0.3
Cloverdale-East (Ranch 83) 9/1/26 0930 63.1   6.1 - - 2.3   0.1 SSE | 159 5.0   1.0 0.00 0.00 54.8   6.8 64.0   6.7
Cloverdale-SE (Ranch 38) 9/1/26 0930 60.7   6.6 81   12 55.0   2.8 3.2   0.6 SSE | 158 6.9   0.5 0.00 0.00 55.6   4.6 61.8   6.9
Geyserville-North (Hoffman) 9/1/26 0930 63.1   6.1 78   9 56.3   3.0 1.7   0.6 E | 95 4.9   1.1 0.00 0.00 52.1   2.2 65.8   8.0
Geyserville (Ranch 3) 9/1/26 0930 62.2   5.3 77   7 55.0   2.9 1.5   0.2 SE | 146 5.1   0.7 0.00 0.00 52.8   2.2 64.5   7.5
Geyserville-East (Ranch 40) 9/1/26 0930 60.8   6.9 81   14 55.0   2.4 3.5   0.8 ENE | 64 7.7   1.2 0.00 0.00 52.6   1.4 61.8   7.4
Geyserville-South (Nervo Station) 9/1/26 0930 60.9   5.3 - - 1.8   0.2 ENE | 73 5.1   1.0 0.00 0.00 54.1   2.5 61.8   5.8
Peterson (Ranch 09) 9/1/26 0930 60.2   4.8 82   5 54.8   3.0 2.3   0.3 NE | 51 6.3   2.5 0.00 0.00 49.9   0.2 61.0   5.2
Crazy Creek Ranch 9/1/26 0930 62.6   5.3 78   9 55.6   2.2 2.5   1.6 SW | 226 5.7   2.7 0.00 0.00 49.7   0.8 62.6   5.2
Whitton Ranch (201e) 9/1/26 0930 61.3   4.0 83   1 56.2   3.7 2.4   0.9 ENE | 68 5.2   1.6 0.00 0.00 46.0   0.8 62.7   5.3
Lytton East (Shop Hill Bottom) 9/1/26 0930 62.2   7.1 73   17 53.6   1.2 2.8   0.5 E | 92 6.3   1.6 0.00 0.00 47.8   0.4 62.8   7.4
Lytton East (Hill 5) 9/1/26 0930 62.1   7.4 75   19 54.1   1.1 2.3   0.9 ENE | 77 4.8   1.3 0.00 0.00 52.2   1.8 62.6   7.6
Lytton West Lower (Lew 6) 9/1/26 0930 63.3   7.7 71   17 53.6   1.5 1.8   1.5 ENE | 63 3.8   1.5 0.00 0.00 47.4   0.3 64.4   8.7
Lytton West Hill (23PS) 9/1/26 0930 64.7   8.9 68   21 53.8   1.2 3.1   1.4 NNW | 336 7.3   3.5 0.00 0.00 53.1   2.1 65.1   9.1
Big River 9/1/26 0930 61.2   5.8 83   10 56.0   2.5 1.2   1.0 W | 268 5.0   0.7 0.00 0.00 52.0   1.6 62.0   6.2
Jimtown-North (Piccolo Ranch 15) 9/1/26 0930 61.4   5.3 76   20 53.9   1.1 1.1   0.9 NW | 305 3.9   0.9 0.00 0.00 48.9   0.4 61.9   5.4
HWY 128/Chalk Hill Rd (Landslide) 9/1/26 0900 62.8   6.9 71   20 53.4   0.2 0.6   1.1 SW | 225 2.5   0.4 0.00 0.00 48.5   1.9 63.3   7.2
N Chalk Hill Rd (Ranch 63) 9/1/26 0930 62.3   7.2 75   13 54.2   2.7 2.5   0.5 NW | 310 6.2   1.0 0.00 0.00 47.6   0.5 63.0   7.8
Newman Knights Valley 8/18/26 0015 56.2   1.8 85   4 51.7   0.4 0.8   3.5 NE | 55 2.3   5.8 0.00 0.00 55.0   1.2 88.3   0.6
Knights Valley (Bavarian Lion) 9/1/26 0930 62.6   6.8 69   17 52.2   0.6 3.7   0.4 WNW | 299 6.7   1.4 0.00 0.00 47.2   2.3 62.9   6.8
Red Tail 9/1/26 0930 62.2   7.3 78   11 55.4   3.5 2.9   0.3 WNW | 298 7.4   2.5 0.00 0.00 48.9   1.3 62.5   7.4
Franz Valley (Stornetta) 9/1/26 0930 62.3   4.4 71   9 52.7   1.0 2.6   0.3 WSW | 248 6.0   1.7 0.00 0.00 47.2   1.5 63.2   5.0
Upper Dry Creek Valley 9/1/26 0930 63.4   6.2 73   9 54.7   2.9 1.4   0.1 ENE | 66 4.1   0.0 0.00 0.00 50.1   1.4 64.7   7.2
Lower Dry Creek Valley 9/1/26 0930 65.6   8.8 65   18 53.5   1.9 0.3   0.3 ENE | 75 4.0   0.1 0.00 0.00 48.4   0.3 66.4   9.5
Max     65.6 89 56.3 6.0 - 13.0 0.00 0.00 55.6 66.4
Avg     61.8 76 54.2 2.4 - 6.0 0.00 - - -
Min     54.9 65 51.6 0.3 - 2.5 0.00 0.00 46.0 56.9